sensor_id;sensor_type;location;lat;lon;timestamp;temperature;humidity
68842;SHT35;55849;48.482;2.332;2023-03-01T00:01:48;6.70;43.33
68842;SHT35;55849;48.482;2.332;2023-03-01T00:04:50;6.71;43.36
68842;SHT35;55849;48.482;2.332;2023-03-01T00:07:54;6.67;43.37
68842;SHT35;55849;48.482;2.332;2023-03-01T00:11:02;6.64;43.30
68842;SHT35;55849;48.482;2.332;2023-03-01T00:14:04;6.61;43.16
68842;SHT35;55849;48.482;2.332;2023-03-01T00:17:06;6.58;43.29
68842;SHT35;55849;48.482;2.332;2023-03-01T00:20:09;6.57;43.48
68842;SHT35;55849;48.482;2.332;2023-03-01T00:23:12;6.57;43.48
68842;SHT35;55849;48.482;2.332;2023-03-01T00:26:15;6.53;43.26
68842;SHT35;55849;48.482;2.332;2023-03-01T00:29:17;6.51;43.29
68842;SHT35;55849;48.482;2.332;2023-03-01T00:32:19;6.47;43.44
68842;SHT35;55849;48.482;2.332;2023-03-01T00:35:20;6.46;43.41
68842;SHT35;55849;48.482;2.332;2023-03-01T00:38:24;6.44;43.37
68842;SHT35;55849;48.482;2.332;2023-03-01T00:41:26;6.44;43.59
68842;SHT35;55849;48.482;2.332;2023-03-01T00:44:28;6.43;43.84
68842;SHT35;55849;48.482;2.332;2023-03-01T00:47:29;6.37;44.02
68842;SHT35;55849;48.482;2.332;2023-03-01T00:50:31;6.33;44.00
68842;SHT35;55849;48.482;2.332;2023-03-01T00:53:34;6.33;43.92
68842;SHT35;55849;48.482;2.332;2023-03-01T00:56:36;6.28;44.21
68842;SHT35;55849;48.482;2.332;2023-03-01T00:59:38;6.23;44.20
68842;SHT35;55849;48.482;2.332;2023-03-01T01:02:40;6.22;44.30
68842;SHT35;55849;48.482;2.332;2023-03-01T01:05:41;6.18;44.44
68842;SHT35;55849;48.482;2.332;2023-03-01T01:08:44;6.13;44.73
68842;SHT35;55849;48.482;2.332;2023-03-01T01:11:48;6.09;44.76
68842;SHT35;55849;48.482;2.332;2023-03-01T01:14:50;6.06;44.71
68842;SHT35;55849;48.482;2.332;2023-03-01T01:17:51;6.04;44.74
68842;SHT35;55849;48.482;2.332;2023-03-01T01:20:53;6.01;44.86
68842;SHT35;55849;48.482;2.332;2023-03-01T01:23:56;5.97;45.01
68842;SHT35;55849;48.482;2.332;2023-03-01T01:26:58;5.94;45.16
68842;SHT35;55849;48.482;2.332;2023-03-01T01:29:59;5.88;45.17
68842;SHT35;55849;48.482;2.332;2023-03-01T01:33:01;5.87;45.31
68842;SHT35;55849;48.482;2.332;2023-03-01T01:36:03;5.83;45.44
68842;SHT35;55849;48.482;2.332;2023-03-01T01:39:06;5.77;45.40
68842;SHT35;55849;48.482;2.332;2023-03-01T01:42:14;5.75;45.51
68842;SHT35;55849;48.482;2.332;2023-03-01T01:45:31;5.71;45.36
68842;SHT35;55849;48.482;2.332;2023-03-01T01:48:38;5.73;45.60
68842;SHT35;55849;48.482;2.332;2023-03-01T01:51:44;5.69;45.76
68842;SHT35;55849;48.482;2.332;2023-03-01T01:54:52;5.69;45.85
68842;SHT35;55849;48.482;2.332;2023-03-01T01:57:57;5.62;45.88
68842;SHT35;55849;48.482;2.332;2023-03-01T02:01:00;5.59;46.06
68842;SHT35;55849;48.482;2.332;2023-03-01T02:04:03;5.54;46.00
68842;SHT35;55849;48.482;2.332;2023-03-01T02:07:11;5.49;46.17
68842;SHT35;55849;48.482;2.332;2023-03-01T02:10:16;5.45;46.15
68842;SHT35;55849;48.482;2.332;2023-03-01T02:13:18;5.40;46.22
68842;SHT35;55849;48.482;2.332;2023-03-01T02:16:20;5.38;46.54
68842;SHT35;55849;48.482;2.332;2023-03-01T02:19:34;5.36;46.65
68842;SHT35;55849;48.482;2.332;2023-03-01T02:22:43;5.31;46.74
68842;SHT35;55849;48.482;2.332;2023-03-01T02:25:52;5.29;46.69
68842;SHT35;55849;48.482;2.332;2023-03-01T02:28:56;5.28;46.80
68842;SHT35;55849;48.482;2.332;2023-03-01T02:32:00;5.27;46.80
68842;SHT35;55849;48.482;2.332;2023-03-01T02:35:04;5.24;46.91
68842;SHT35;55849;48.482;2.332;2023-03-01T02:38:07;5.22;47.01
68842;SHT35;55849;48.482;2.332;2023-03-01T02:41:13;5.18;47.11
68842;SHT35;55849;48.482;2.332;2023-03-01T02:44:17;5.17;47.05
68842;SHT35;55849;48.482;2.332;2023-03-01T02:47:19;5.12;47.16
68842;SHT35;55849;48.482;2.332;2023-03-01T02:50:32;5.08;47.22
68842;SHT35;55849;48.482;2.332;2023-03-01T02:53:48;5.05;47.10
68842;SHT35;55849;48.482;2.332;2023-03-01T02:56:51;5.05;47.01
68842;SHT35;55849;48.482;2.332;2023-03-01T02:59:56;5.07;47.12
68842;SHT35;55849;48.482;2.332;2023-03-01T03:02:58;5.05;47.13
68842;SHT35;55849;48.482;2.332;2023-03-01T03:06:00;4.98;47.11
68842;SHT35;55849;48.482;2.332;2023-03-01T03:09:02;5.00;47.32
68842;SHT35;55849;48.482;2.332;2023-03-01T03:12:04;4.98;47.42
68842;SHT35;55849;48.482;2.332;2023-03-01T03:15:09;4.95;47.34
68842;SHT35;55849;48.482;2.332;2023-03-01T03:18:14;4.94;47.26
68842;SHT35;55849;48.482;2.332;2023-03-01T03:21:16;4.94;47.37
68842;SHT35;55849;48.482;2.332;2023-03-01T03:24:18;4.91;47.25
68842;SHT35;55849;48.482;2.332;2023-03-01T03:27:19;4.91;47.39
68842;SHT35;55849;48.482;2.332;2023-03-01T03:30:24;4.90;47.29
68842;SHT35;55849;48.482;2.332;2023-03-01T03:33:26;4.90;47.36
68842;SHT35;55849;48.482;2.332;2023-03-01T03:36:27;4.87;47.53
68842;SHT35;55849;48.482;2.332;2023-03-01T03:39:29;4.84;47.60
68842;SHT35;55849;48.482;2.332;2023-03-01T03:42:34;4.85;47.49
68842;SHT35;55849;48.482;2.332;2023-03-01T03:45:38;4.83;47.59
68842;SHT35;55849;48.482;2.332;2023-03-01T03:48:41;4.83;47.56
68842;SHT35;55849;48.482;2.332;2023-03-01T03:51:45;4.79;47.50
68842;SHT35;55849;48.482;2.332;2023-03-01T03:54:47;4.79;47.64
68842;SHT35;55849;48.482;2.332;2023-03-01T03:57:48;4.77;47.82
68842;SHT35;55849;48.482;2.332;2023-03-01T04:00:54;4.76;47.75
68842;SHT35;55849;48.482;2.332;2023-03-01T04:03:56;4.76;48.09
68842;SHT35;55849;48.482;2.332;2023-03-01T04:07:02;4.76;47.92
68842;SHT35;55849;48.482;2.332;2023-03-01T04:10:06;4.73;48.05
68842;SHT35;55849;48.482;2.332;2023-03-01T04:13:11;4.72;48.21
68842;SHT35;55849;48.482;2.332;2023-03-01T04:16:14;4.69;48.26
68842;SHT35;55849;48.482;2.332;2023-03-01T04:19:16;4.65;48.46
68842;SHT35;55849;48.482;2.332;2023-03-01T04:22:17;4.62;48.44
68842;SHT35;55849;48.482;2.332;2023-03-01T04:25:19;4.59;48.57
68842;SHT35;55849;48.482;2.332;2023-03-01T04:28:22;4.60;48.45
68842;SHT35;55849;48.482;2.332;2023-03-01T04:31:26;4.55;48.58
68842;SHT35;55849;48.482;2.332;2023-03-01T04:34:28;4.52;48.65
68842;SHT35;55849;48.482;2.332;2023-03-01T04:37:30;4.49;48.79
68842;SHT35;55849;48.482;2.332;2023-03-01T04:40:32;4.50;48.69
68842;SHT35;55849;48.482;2.332;2023-03-01T04:43:34;4.48;48.79
68842;SHT35;55849;48.482;2.332;2023-03-01T04:46:37;4.45;48.89
68842;SHT35;55849;48.482;2.332;2023-03-01T04:49:39;4.44;49.03
68842;SHT35;55849;48.482;2.332;2023-03-01T04:52:41;4.44;49.09
68842;SHT35;55849;48.482;2.332;2023-03-01T04:55:43;4.42;49.06
68842;SHT35;55849;48.482;2.332;2023-03-01T04:58:45;4.39;49.10
68842;SHT35;55849;48.482;2.332;2023-03-01T05:01:48;4.38;49.19
68842;SHT35;55849;48.482;2.332;2023-03-01T05:04:49;4.34;49.24
68842;SHT35;55849;48.482;2.332;2023-03-01T05:07:53;4.32;49.40
68842;SHT35;55849;48.482;2.332;2023-03-01T05:10:54;4.32;49.37
68842;SHT35;55849;48.482;2.332;2023-03-01T05:13:56;4.31;49.51
68842;SHT35;55849;48.482;2.332;2023-03-01T05:16:59;4.31;49.50
68842;SHT35;55849;48.482;2.332;2023-03-01T05:20:05;4.30;49.59
68842;SHT35;55849;48.482;2.332;2023-03-01T05:23:09;4.27;49.62
68842;SHT35;55849;48.482;2.332;2023-03-01T05:26:10;4.27;49.73
68842;SHT35;55849;48.482;2.332;2023-03-01T05:29:13;4.25;49.73
68842;SHT35;55849;48.482;2.332;2023-03-01T05:32:16;4.24;49.78
68842;SHT35;55849;48.482;2.332;2023-03-01T05:35:18;4.24;49.89
68842;SHT35;55849;48.482;2.332;2023-03-01T05:38:20;4.22;49.91
68842;SHT35;55849;48.482;2.332;2023-03-01T05:41:22;4.20;49.93
68842;SHT35;55849;48.482;2.332;2023-03-01T05:44:25;4.21;50.06
68842;SHT35;55849;48.482;2.332;2023-03-01T05:47:28;4.21;49.99
68842;SHT35;55849;48.482;2.332;2023-03-01T05:50:34;4.15;50.04
68842;SHT35;55849;48.482;2.332;2023-03-01T05:53:36;4.15;49.98
68842;SHT35;55849;48.482;2.332;2023-03-01T05:56:37;4.11;50.01
68842;SHT35;55849;48.482;2.332;2023-03-01T05:59:40;4.11;50.06
68842;SHT35;55849;48.482;2.332;2023-03-01T06:02:43;4.07;50.19
68842;SHT35;55849;48.482;2.332;2023-03-01T06:05:44;4.07;50.19
68842;SHT35;55849;48.482;2.332;2023-03-01T06:08:46;4.07;50.30
68842;SHT35;55849;48.482;2.332;2023-03-01T06:11:48;4.06;50.25
68842;SHT35;55849;48.482;2.332;2023-03-01T06:14:49;4.01;50.33
68842;SHT35;55849;48.482;2.332;2023-03-01T06:17:54;4.03;50.32
68842;SHT35;55849;48.482;2.332;2023-03-01T06:20:57;3.97;50.47
68842;SHT35;55849;48.482;2.332;2023-03-01T06:23:58;4.00;50.45
68842;SHT35;55849;48.482;2.332;2023-03-01T06:27:01;3.98;50.54
68842;SHT35;55849;48.482;2.332;2023-03-01T06:30:03;4.00;50.60
68842;SHT35;55849;48.482;2.332;2023-03-01T06:33:06;3.98;50.68
68842;SHT35;55849;48.482;2.332;2023-03-01T06:36:08;3.98;50.66
68842;SHT35;55849;48.482;2.332;2023-03-01T06:39:10;3.96;50.66
68842;SHT35;55849;48.482;2.332;2023-03-01T06:42:12;3.97;50.83
68842;SHT35;55849;48.482;2.332;2023-03-01T06:45:14;3.97;50.88
68842;SHT35;55849;48.482;2.332;2023-03-01T06:48:17;3.97;50.84
68842;SHT35;55849;48.482;2.332;2023-03-01T06:51:18;3.93;50.82
68842;SHT35;55849;48.482;2.332;2023-03-01T06:54:20;3.93;50.89
68842;SHT35;55849;48.482;2.332;2023-03-01T06:57:22;3.94;51.04
68842;SHT35;55849;48.482;2.332;2023-03-01T07:00:24;3.91;51.13
68842;SHT35;55849;48.482;2.332;2023-03-01T07:03:27;3.90;51.19
68842;SHT35;55849;48.482;2.332;2023-03-01T07:06:29;3.93;51.24
68842;SHT35;55849;48.482;2.332;2023-03-01T07:09:31;3.91;51.35
68842;SHT35;55849;48.482;2.332;2023-03-01T07:12:32;3.90;51.50
68842;SHT35;55849;48.482;2.332;2023-03-01T07:15:34;3.94;51.51
68842;SHT35;55849;48.482;2.332;2023-03-01T07:18:37;3.96;51.67
68842;SHT35;55849;48.482;2.332;2023-03-01T07:21:39;3.94;51.70
68842;SHT35;55849;48.482;2.332;2023-03-01T07:24:40;3.97;51.71
68842;SHT35;55849;48.482;2.332;2023-03-01T07:27:42;3.97;51.83
68842;SHT35;55849;48.482;2.332;2023-03-01T07:30:43;4.03;51.73
68842;SHT35;55849;48.482;2.332;2023-03-01T07:33:47;4.00;51.73
68842;SHT35;55849;48.482;2.332;2023-03-01T07:36:48;4.06;51.95
68842;SHT35;55849;48.482;2.332;2023-03-01T07:39:50;4.08;51.89
68842;SHT35;55849;48.482;2.332;2023-03-01T07:42:55;4.08;51.98
68842;SHT35;55849;48.482;2.332;2023-03-01T07:45:58;4.11;51.98
68842;SHT35;55849;48.482;2.332;2023-03-01T07:49:01;4.15;51.96
68842;SHT35;55849;48.482;2.332;2023-03-01T07:52:04;4.17;52.02
68842;SHT35;55849;48.482;2.332;2023-03-01T07:55:07;4.18;52.16
68842;SHT35;55849;48.482;2.332;2023-03-01T07:58:08;4.20;52.25
68842;SHT35;55849;48.482;2.332;2023-03-01T08:01:12;4.27;52.22
68842;SHT35;55849;48.482;2.332;2023-03-01T11:27:18;7.83;50.45
68842;SHT35;55849;48.482;2.332;2023-03-01T11:30:24;7.93;50.99
68842;SHT35;55849;48.482;2.332;2023-03-01T11:33:35;8.02;50.36
68842;SHT35;55849;48.482;2.332;2023-03-01T11:36:41;8.10;50.09
68842;SHT35;55849;48.482;2.332;2023-03-01T11:39:53;8.17;50.22
68842;SHT35;55849;48.482;2.332;2023-03-01T11:43:04;8.30;50.22
68842;SHT35;55849;48.482;2.332;2023-03-01T11:46:33;8.42;50.01
68842;SHT35;55849;48.482;2.332;2023-03-01T11:49:54;8.52;50.39
68842;SHT35;55849;48.482;2.332;2023-03-01T11:53:27;8.65;49.89
68842;SHT35;55849;48.482;2.332;2023-03-01T11:56:34;8.77;49.74
68842;SHT35;55849;48.482;2.332;2023-03-01T11:59:48;8.90;48.95
68842;SHT35;55849;48.482;2.332;2023-03-01T12:03:26;9.03;50.11
68842;SHT35;55849;48.482;2.332;2023-03-01T12:06:50;9.15;49.42
68842;SHT35;55849;48.482;2.332;2023-03-01T12:10:02;9.31;48.81
68842;SHT35;55849;48.482;2.332;2023-03-01T12:13:23;9.45;48.76
68842;SHT35;55849;48.482;2.332;2023-03-01T12:16:40;9.58;48.64
68842;SHT35;55849;48.482;2.332;2023-03-01T12:20:14;9.72;47.54
68842;SHT35;55849;48.482;2.332;2023-03-01T12:27:01;10.03;47.58
68842;SHT35;55849;48.482;2.332;2023-03-01T12:30:20;10.21;47.62
68842;SHT35;55849;48.482;2.332;2023-03-01T12:33:34;10.44;47.42
68842;SHT35;55849;48.482;2.332;2023-03-01T12:36:48;10.60;47.01
68842;SHT35;55849;48.482;2.332;2023-03-01T12:40:13;10.84;46.22
68842;SHT35;55849;48.482;2.332;2023-03-01T12:43:26;11.10;45.74
68842;SHT35;55849;48.482;2.332;2023-03-01T12:47:04;11.28;45.60
68842;SHT35;55849;48.482;2.332;2023-03-01T12:50:17;11.55;45.32
68842;SHT35;55849;48.482;2.332;2023-03-01T12:53:23;11.75;44.61
68842;SHT35;55849;48.482;2.332;2023-03-01T12:56:28;11.94;43.96
68842;SHT35;55849;48.482;2.332;2023-03-01T12:59:36;12.15;44.25
68842;SHT35;55849;48.482;2.332;2023-03-01T13:02:46;12.36;43.76
68842;SHT35;55849;48.482;2.332;2023-03-01T13:06:02;12.54;43.46
68842;SHT35;55849;48.482;2.332;2023-03-01T13:09:11;12.73;42.94
68842;SHT35;55849;48.482;2.332;2023-03-01T13:12:50;12.88;42.37
68842;SHT35;55849;48.482;2.332;2023-03-01T13:15:52;13.05;42.09
68842;SHT35;55849;48.482;2.332;2023-03-01T13:19:06;13.19;41.36
68842;SHT35;55849;48.482;2.332;2023-03-01T13:22:28;13.33;41.50
68842;SHT35;55849;48.482;2.332;2023-03-01T13:25:31;13.46;41.47
68842;SHT35;55849;48.482;2.332;2023-03-01T13:29:00;13.64;41.05
68842;SHT35;55849;48.482;2.332;2023-03-01T13:32:02;13.81;40.83
68842;SHT35;55849;48.482;2.332;2023-03-01T13:38:48;14.09;40.45
68842;SHT35;55849;48.482;2.332;2023-03-01T13:41:57;14.24;39.99
68842;SHT35;55849;48.482;2.332;2023-03-01T13:45:00;14.41;39.59
68842;SHT35;55849;48.482;2.332;2023-03-01T13:48:08;14.57;39.37
68842;SHT35;55849;48.482;2.332;2023-03-01T13:51:11;14.74;39.41
68842;SHT35;55849;48.482;2.332;2023-03-01T13:54:16;14.86;38.19
68842;SHT35;55849;48.482;2.332;2023-03-01T13:57:26;15.04;38.37
68842;SHT35;55849;48.482;2.332;2023-03-01T14:00:33;15.23;37.59
68842;SHT35;55849;48.482;2.332;2023-03-01T14:03:40;15.38;37.95
68842;SHT35;55849;48.482;2.332;2023-03-01T14:06:42;15.55;38.06
68842;SHT35;55849;48.482;2.332;2023-03-01T14:09:48;15.66;37.32
68842;SHT35;55849;48.482;2.332;2023-03-01T14:12:54;15.83;36.90
68842;SHT35;55849;48.482;2.332;2023-03-01T14:16:12;15.94;37.10
68842;SHT35;55849;48.482;2.332;2023-03-01T14:19:20;16.09;36.46
68842;SHT35;55849;48.482;2.332;2023-03-01T14:22:28;16.22;36.94
68842;SHT35;55849;48.482;2.332;2023-03-01T14:25:34;16.35;36.44
68842;SHT35;55849;48.482;2.332;2023-03-01T14:28:37;16.49;36.36
68842;SHT35;55849;48.482;2.332;2023-03-01T14:31:39;16.59;36.04
68842;SHT35;55849;48.482;2.332;2023-03-01T14:34:43;16.72;35.69
68842;SHT35;55849;48.482;2.332;2023-03-01T14:37:45;16.76;35.36
68842;SHT35;55849;48.482;2.332;2023-03-01T14:40:55;16.84;35.02
68842;SHT35;55849;48.482;2.332;2023-03-01T14:44:00;16.91;34.64
68842;SHT35;55849;48.482;2.332;2023-03-01T14:47:03;16.96;34.80
68842;SHT35;55849;48.482;2.332;2023-03-01T14:50:08;17.02;34.88
68842;SHT35;55849;48.482;2.332;2023-03-01T14:53:17;17.07;34.59
68842;SHT35;55849;48.482;2.332;2023-03-01T14:56:21;17.13;34.42
68842;SHT35;55849;48.482;2.332;2023-03-01T14:59:23;17.17;34.18
68842;SHT35;55849;48.482;2.332;2023-03-01T15:02:26;17.24;34.14
68842;SHT35;55849;48.482;2.332;2023-03-01T15:05:30;17.28;33.81
68842;SHT35;55849;48.482;2.332;2023-03-01T15:08:33;17.32;34.08
68842;SHT35;55849;48.482;2.332;2023-03-01T15:11:36;17.30;33.74
68842;SHT35;55849;48.482;2.332;2023-03-01T15:14:42;17.25;33.96
68842;SHT35;55849;48.482;2.332;2023-03-01T15:17:44;17.20;33.54
68842;SHT35;55849;48.482;2.332;2023-03-01T15:20:46;17.15;33.77
68842;SHT35;55849;48.482;2.332;2023-03-01T15:23:50;17.10;34.00
68842;SHT35;55849;48.482;2.332;2023-03-01T15:26:56;17.04;33.75
68842;SHT35;55849;48.482;2.332;2023-03-01T15:30:03;17.03;33.43
68842;SHT35;55849;48.482;2.332;2023-03-01T15:33:20;16.99;33.64
68842;SHT35;55849;48.482;2.332;2023-03-01T15:36:32;16.97;33.47
68842;SHT35;55849;48.482;2.332;2023-03-01T15:39:39;16.93;33.70
68842;SHT35;55849;48.482;2.332;2023-03-01T15:42:45;16.84;33.45
68842;SHT35;55849;48.482;2.332;2023-03-01T15:45:56;16.79;33.71
68842;SHT35;55849;48.482;2.332;2023-03-01T15:49:00;16.75;33.76
68842;SHT35;55849;48.482;2.332;2023-03-01T15:52:02;16.70;33.47
68842;SHT35;55849;48.482;2.332;2023-03-01T15:55:10;16.65;33.76
68842;SHT35;55849;48.482;2.332;2023-03-01T15:58:19;16.62;33.66
68842;SHT35;55849;48.482;2.332;2023-03-01T16:01:21;16.56;33.94
68842;SHT35;55849;48.482;2.332;2023-03-01T16:04:23;16.58;33.62
68842;SHT35;55849;48.482;2.332;2023-03-01T16:07:24;16.48;33.56
68842;SHT35;55849;48.482;2.332;2023-03-01T16:10:28;16.41;33.77
68842;SHT35;55849;48.482;2.332;2023-03-01T16:13:31;16.27;33.83
68842;SHT35;55849;48.482;2.332;2023-03-01T16:16:33;16.16;33.99
68842;SHT35;55849;48.482;2.332;2023-03-01T16:19:35;16.02;34.12
68842;SHT35;55849;48.482;2.332;2023-03-01T16:22:37;15.79;34.37
68842;SHT35;55849;48.482;2.332;2023-03-01T16:25:39;15.54;34.33
68842;SHT35;55849;48.482;2.332;2023-03-01T16:28:43;15.28;35.25
68842;SHT35;55849;48.482;2.332;2023-03-01T16:31:44;15.03;34.85
68842;SHT35;55849;48.482;2.332;2023-03-01T16:34:46;14.76;35.09
68842;SHT35;55849;48.482;2.332;2023-03-01T16:37:49;14.55;35.36
68842;SHT35;55849;48.482;2.332;2023-03-01T16:40:52;14.31;35.99
68842;SHT35;55849;48.482;2.332;2023-03-01T16:43:55;14.16;35.91
68842;SHT35;55849;48.482;2.332;2023-03-01T16:46:57;13.98;36.26
68842;SHT35;55849;48.482;2.332;2023-03-01T16:49:59;13.83;36.40
68842;SHT35;55849;48.482;2.332;2023-03-01T16:53:00;13.67;36.37
68842;SHT35;55849;48.482;2.332;2023-03-01T16:56:04;13.51;36.92
68842;SHT35;55849;48.482;2.332;2023-03-01T16:59:07;13.36;37.24
68842;SHT35;55849;48.482;2.332;2023-03-01T17:02:10;13.24;37.09
68842;SHT35;55849;48.482;2.332;2023-03-01T17:05:12;13.08;37.42
68842;SHT35;55849;48.482;2.332;2023-03-01T17:08:15;12.95;37.43
68842;SHT35;55849;48.482;2.332;2023-03-01T17:11:18;12.84;37.53
68842;SHT35;55849;48.482;2.332;2023-03-01T17:14:21;12.73;37.89
68842;SHT35;55849;48.482;2.332;2023-03-01T17:17:23;12.59;38.15
68842;SHT35;55849;48.482;2.332;2023-03-01T17:20:25;12.47;37.96
68842;SHT35;55849;48.482;2.332;2023-03-01T17:23:27;12.33;38.36
68842;SHT35;55849;48.482;2.332;2023-03-01T17:26:29;12.22;38.75
68842;SHT35;55849;48.482;2.332;2023-03-01T17:29:33;12.12;38.72
68842;SHT35;55849;48.482;2.332;2023-03-01T17:32:35;12.04;38.66
68842;SHT35;55849;48.482;2.332;2023-03-01T17:35:36;11.94;38.87
68842;SHT35;55849;48.482;2.332;2023-03-01T17:38:38;11.87;39.00
68842;SHT35;55849;48.482;2.332;2023-03-01T17:41:39;11.77;39.30
68842;SHT35;55849;48.482;2.332;2023-03-01T17:44:42;11.67;39.70
68842;SHT35;55849;48.482;2.332;2023-03-01T17:47:44;11.57;39.99
68842;SHT35;55849;48.482;2.332;2023-03-01T17:50:46;11.50;40.41
68842;SHT35;55849;48.482;2.332;2023-03-01T17:53:47;11.42;40.47
68842;SHT35;55849;48.482;2.332;2023-03-01T17:56:49;11.31;40.40
68842;SHT35;55849;48.482;2.332;2023-03-01T17:59:52;11.22;40.52
68842;SHT35;55849;48.482;2.332;2023-03-01T18:02:54;11.16;40.90
68842;SHT35;55849;48.482;2.332;2023-03-01T18:05:55;11.07;40.92
68842;SHT35;55849;48.482;2.332;2023-03-01T18:08:57;10.98;41.09
68842;SHT35;55849;48.482;2.332;2023-03-01T18:11:58;10.94;41.45
68842;SHT35;55849;48.482;2.332;2023-03-01T18:15:01;10.83;41.51
68842;SHT35;55849;48.482;2.332;2023-03-01T18:18:03;10.79;41.70
68842;SHT35;55849;48.482;2.332;2023-03-01T18:21:05;10.70;41.88
68842;SHT35;55849;48.482;2.332;2023-03-01T18:24:07;10.63;41.68
68842;SHT35;55849;48.482;2.332;2023-03-01T18:27:09;10.53;42.08
68842;SHT35;55849;48.482;2.332;2023-03-01T18:30:13;10.46;42.14
68842;SHT35;55849;48.482;2.332;2023-03-01T18:33:15;10.42;42.35
68842;SHT35;55849;48.482;2.332;2023-03-01T18:36:19;10.36;42.52
68842;SHT35;55849;48.482;2.332;2023-03-01T18:39:21;10.27;42.69
68842;SHT35;55849;48.482;2.332;2023-03-01T18:42:23;10.19;42.88
68842;SHT35;55849;48.482;2.332;2023-03-01T18:45:26;10.11;42.87
68842;SHT35;55849;48.482;2.332;2023-03-01T18:48:27;10.07;43.04
68842;SHT35;55849;48.482;2.332;2023-03-01T18:51:29;9.95;43.05
68842;SHT35;55849;48.482;2.332;2023-03-01T18:54:31;9.91;43.01
68842;SHT35;55849;48.482;2.332;2023-03-01T18:57:34;9.84;43.15
68842;SHT35;55849;48.482;2.332;2023-03-01T19:00:38;9.77;43.44
68842;SHT35;55849;48.482;2.332;2023-03-01T19:03:39;9.72;43.47
68842;SHT35;55849;48.482;2.332;2023-03-01T19:06:41;9.65;43.82
68842;SHT35;55849;48.482;2.332;2023-03-01T19:09:43;9.59;43.80
68842;SHT35;55849;48.482;2.332;2023-03-01T19:12:44;9.55;43.80
68842;SHT35;55849;48.482;2.332;2023-03-01T19:15:47;9.49;43.92
68842;SHT35;55849;48.482;2.332;2023-03-01T19:18:49;9.45;43.90
68842;SHT35;55849;48.482;2.332;2023-03-01T19:21:50;9.36;44.18
68842;SHT35;55849;48.482;2.332;2023-03-01T19:24:52;9.38;44.20
68842;SHT35;55849;48.482;2.332;2023-03-01T19:27:54;9.30;44.24
68842;SHT35;55849;48.482;2.332;2023-03-01T19:31:01;9.28;44.23
68842;SHT35;55849;48.482;2.332;2023-03-01T19:34:03;9.23;44.37
68842;SHT35;55849;48.482;2.332;2023-03-01T19:37:05;9.18;44.57
68842;SHT35;55849;48.482;2.332;2023-03-01T19:40:07;9.11;44.58
68842;SHT35;55849;48.482;2.332;2023-03-01T19:43:09;9.06;44.63
68842;SHT35;55849;48.482;2.332;2023-03-01T19:46:12;9.03;44.82
68842;SHT35;55849;48.482;2.332;2023-03-01T19:49:15;8.96;44.85
68842;SHT35;55849;48.482;2.332;2023-03-01T19:52:17;8.93;45.06
68842;SHT35;55849;48.482;2.332;2023-03-01T19:55:18;8.87;44.98
68842;SHT35;55849;48.482;2.332;2023-03-01T19:58:20;8.87;45.06
68842;SHT35;55849;48.482;2.332;2023-03-01T20:01:23;8.82;45.13
68842;SHT35;55849;48.482;2.332;2023-03-01T20:04:24;8.76;45.29
68842;SHT35;55849;48.482;2.332;2023-03-01T20:07:26;8.73;45.27
68842;SHT35;55849;48.482;2.332;2023-03-01T20:10:28;8.72;45.40
68842;SHT35;55849;48.482;2.332;2023-03-01T20:13:30;8.66;45.46
68842;SHT35;55849;48.482;2.332;2023-03-01T20:16:33;8.62;45.32
68842;SHT35;55849;48.482;2.332;2023-03-01T20:19:35;8.61;45.43
68842;SHT35;55849;48.482;2.332;2023-03-01T20:22:37;8.56;45.42
68842;SHT35;55849;48.482;2.332;2023-03-01T20:25:38;8.52;45.56
68842;SHT35;55849;48.482;2.332;2023-03-01T20:28:40;8.48;45.64
68842;SHT35;55849;48.482;2.332;2023-03-01T20:31:43;8.45;45.58
68842;SHT35;55849;48.482;2.332;2023-03-01T20:34:45;8.42;45.66
68842;SHT35;55849;48.482;2.332;2023-03-01T20:37:47;8.36;45.82
68842;SHT35;55849;48.482;2.332;2023-03-01T20:40:56;8.34;45.83
68842;SHT35;55849;48.482;2.332;2023-03-01T20:43:57;8.29;45.95
68842;SHT35;55849;48.482;2.332;2023-03-01T20:47:00;8.24;45.97
68842;SHT35;55849;48.482;2.332;2023-03-01T20:50:02;8.16;46.05
68842;SHT35;55849;48.482;2.332;2023-03-01T20:53:04;8.12;46.20
68842;SHT35;55849;48.482;2.332;2023-03-01T20:56:07;8.04;46.29
68842;SHT35;55849;48.482;2.332;2023-03-01T20:59:11;8.00;46.44
68842;SHT35;55849;48.482;2.332;2023-03-01T21:02:14;7.92;46.48
68842;SHT35;55849;48.482;2.332;2023-03-01T21:05:16;7.86;46.52
68842;SHT35;55849;48.482;2.332;2023-03-01T21:08:19;7.82;46.61
68842;SHT35;55849;48.482;2.332;2023-03-01T21:11:21;7.77;46.63
68842;SHT35;55849;48.482;2.332;2023-03-01T21:14:24;7.72;46.89
68842;SHT35;55849;48.482;2.332;2023-03-01T21:17:27;7.68;46.93
68842;SHT35;55849;48.482;2.332;2023-03-01T21:20:29;7.62;46.94
68842;SHT35;55849;48.482;2.332;2023-03-01T21:23:32;7.57;46.96
68842;SHT35;55849;48.482;2.332;2023-03-01T21:26:35;7.54;47.09
68842;SHT35;55849;48.482;2.332;2023-03-01T21:29:37;7.51;47.22
68842;SHT35;55849;48.482;2.332;2023-03-01T21:32:40;7.44;47.28
68842;SHT35;55849;48.482;2.332;2023-03-01T21:35:42;7.43;47.38
68842;SHT35;55849;48.482;2.332;2023-03-01T21:38:45;7.40;47.45
68842;SHT35;55849;48.482;2.332;2023-03-01T21:41:48;7.36;47.46
68842;SHT35;55849;48.482;2.332;2023-03-01T21:44:50;7.30;47.68
68842;SHT35;55849;48.482;2.332;2023-03-01T21:47:53;7.28;47.72
68842;SHT35;55849;48.482;2.332;2023-03-01T21:50:55;7.24;47.80
68842;SHT35;55849;48.482;2.332;2023-03-01T21:53:58;7.20;47.78
68842;SHT35;55849;48.482;2.332;2023-03-01T21:57:00;7.19;47.97
68842;SHT35;55849;48.482;2.332;2023-03-01T22:00:02;7.15;47.94
68842;SHT35;55849;48.482;2.332;2023-03-01T22:03:08;7.12;47.97
68842;SHT35;55849;48.482;2.332;2023-03-01T22:06:11;7.06;48.03
68842;SHT35;55849;48.482;2.332;2023-03-01T22:09:18;7.06;48.15
68842;SHT35;55849;48.482;2.332;2023-03-01T22:12:20;7.03;48.18
68842;SHT35;55849;48.482;2.332;2023-03-01T22:15:23;7.01;48.20
